createdAt,value
2023-01-28T00:00:54.540Z,100266.45
2023-01-28T00:03:26.927Z,100267.02
2023-01-28T00:06:01.641Z,100261.77
2023-01-28T00:08:28.894Z,100262.22
2023-01-28T00:11:02.393Z,100264.11
2023-01-28T00:13:30.770Z,100264.09
2023-01-28T00:16:02.365Z,100259.28
2023-01-28T00:18:32.135Z,100254.14
2023-01-28T00:21:15.059Z,100256.21
2023-01-28T00:23:51.705Z,100251.11
2023-01-28T00:26:18.672Z,100251.09
2023-01-28T00:28:47.600Z,100246.08
2023-01-28T00:31:22.550Z,100243.55
2023-01-28T00:33:50.185Z,100241.29
2023-01-28T00:36:18.028Z,100246.30
2023-01-28T00:38:49.993Z,100239.77
2023-01-28T00:41:18.568Z,100233.68
2023-01-28T00:43:59.874Z,100234.29
2023-01-28T00:46:27.491Z,100224.85
2023-01-28T00:49:00.108Z,100226.31
2023-01-28T00:51:28.163Z,100224.95
2023-01-28T00:53:56.052Z,100222.42
2023-01-28T00:56:23.187Z,100223.83
2023-01-28T00:58:50.435Z,100219.98
2023-01-28T01:01:22.223Z,100214.73
2023-01-28T01:03:57.222Z,100207.80
2023-01-28T01:06:24.779Z,100205.23
2023-01-28T01:08:53.263Z,100204.83
2023-01-28T04:55:40.041Z,100162.14
2023-01-28T04:58:08.411Z,100164.84
2023-01-28T05:00:38.756Z,100159.67
2023-01-28T05:03:06.047Z,100165.11
2023-01-28T05:05:38.394Z,100167.20
2023-01-28T05:08:29.781Z,100167.57
2023-01-28T05:10:57.141Z,100164.67
2023-01-28T05:13:25.017Z,100166.40
2023-01-28T05:15:53.386Z,100171.43
2023-01-28T05:18:20.834Z,100173.80
2023-01-28T05:21:00.203Z,100172.32
2023-01-28T05:23:31.015Z,100173.75
2023-01-28T05:25:59.746Z,100174.30
2023-01-28T05:28:26.945Z,100171.51
2023-01-28T05:30:54.012Z,100167.64
2023-01-28T05:33:21.851Z,100168.52
2023-01-28T05:35:54.634Z,100172.42
2023-01-28T05:38:22.812Z,100172.11
2023-01-28T05:40:58.061Z,100168.01
2023-01-28T05:43:25.401Z,100172.21
2023-01-28T05:46:10.572Z,100172.31
2023-01-28T05:55:33.775Z,100183.01
2023-01-28T05:58:01.033Z,100186.34
2023-01-28T06:00:28.414Z,100187.06
2023-01-28T06:02:56.208Z,100182.00
2023-01-28T06:05:24.499Z,100177.16
2023-01-28T06:07:51.925Z,100181.04
2023-01-28T06:10:19.138Z,100182.22
2023-01-28T06:12:47.426Z,100178.77
2023-01-28T06:15:38.208Z,100175.23
2023-01-28T06:18:20.421Z,100171.73
2023-01-28T06:20:54.840Z,100175.27
2023-01-28T06:23:22.094Z,100176.42
2023-01-28T06:25:54.358Z,100175.02
2023-01-28T06:28:21.815Z,100170.13
2023-01-28T06:30:51.547Z,100165.75
2023-01-28T06:33:19.393Z,100163.59
2023-01-28T06:35:49.513Z,100160.17
2023-01-28T06:38:16.666Z,100165.71
2023-01-28T06:40:44.162Z,100167.77
2023-01-28T06:43:13.629Z,100166.65
2023-01-28T06:45:40.974Z,100168.01
2023-01-28T06:48:08.900Z,100167.78
2023-01-28T06:50:36.917Z,100167.88
2023-01-28T06:53:05.909Z,100166.02
2023-01-28T06:55:33.062Z,100163.59
2023-01-28T06:58:01.572Z,100162.80
2023-01-28T07:00:29.300Z,100161.77
2023-01-28T07:02:59.455Z,100153.27
2023-01-28T07:05:26.883Z,100146.93
2023-01-28T07:07:54.858Z,100149.65
2023-01-28T07:10:24.581Z,100145.89
2023-01-28T07:12:52.455Z,100149.25
2023-01-28T07:15:19.980Z,100148.46
2023-01-28T07:17:47.336Z,100149.15
2023-01-28T07:20:15.927Z,100151.98
2023-01-28T07:22:46.271Z,100156.64
2023-01-28T07:25:19.343Z,100157.61
2023-01-28T07:27:49.944Z,100157.95
2023-01-28T07:30:17.908Z,100155.94
2023-01-28T07:32:45.497Z,100163.61
2023-01-28T07:35:13.071Z,100165.27
2023-01-28T07:37:40.712Z,100158.23
2023-01-28T07:40:09.001Z,100160.68
2023-01-28T07:42:36.346Z,100164.56
2023-01-28T07:45:08.003Z,100166.90
2023-01-28T07:47:35.379Z,100168.58
2023-01-28T07:50:02.543Z,100169.07
2023-01-28T07:52:29.779Z,100171.80
2023-01-28T07:55:02.132Z,100169.31
2023-01-28T07:57:29.802Z,100166.58
2023-01-28T07:59:57.663Z,100166.59
2023-01-28T08:02:25.828Z,100167.20
2023-01-28T08:04:59.855Z,100165.15
2023-01-28T08:07:28.021Z,100170.02
2023-01-28T08:09:55.172Z,100172.77
2023-01-28T08:12:24.688Z,100182.25
2023-01-28T08:14:52.039Z,100185.18
2023-01-28T08:17:22.041Z,100184.02
2023-01-28T08:19:49.910Z,100180.73
2023-01-28T08:22:17.822Z,100182.16
2023-01-28T08:24:45.134Z,100187.63
2023-01-28T08:27:12.485Z,100184.87
2023-01-28T08:29:39.600Z,100182.98
2023-01-28T08:32:06.989Z,100178.85
2023-01-28T08:34:36.192Z,100176.59
2023-01-28T08:37:06.205Z,100168.39
2023-01-28T08:39:35.806Z,100168.05
2023-01-28T08:42:03.060Z,100165.20
2023-01-28T08:44:31.040Z,100157.40
2023-01-28T08:46:58.284Z,100154.23
2023-01-28T08:49:25.840Z,100149.88
2023-01-28T08:51:52.922Z,100150.63
2023-01-28T08:54:20.248Z,100145.63
2023-01-28T08:56:53.235Z,100146.23
2023-01-28T08:59:26.146Z,100140.90
2023-01-28T09:01:53.079Z,100135.24
2023-01-28T09:04:25.133Z,100133.18
2023-01-28T09:06:53.723Z,100129.08
2023-01-28T09:09:21.166Z,100125.68
2023-01-28T09:11:48.743Z,100126.63
2023-01-28T09:14:15.974Z,100121.55
2023-01-28T09:16:43.647Z,100122.08
2023-01-28T09:19:16.945Z,100123.01
2023-01-28T09:21:44.299Z,100119.23
2023-01-28T09:24:12.064Z,100113.65
2023-01-28T09:26:44.828Z,100107.98
2023-01-28T09:29:11.880Z,100102.10
2023-01-28T09:31:40.917Z,100097.21
2023-01-28T09:34:10.379Z,100096.18
2023-01-28T09:36:38.277Z,100094.27
2023-01-28T09:39:06.111Z,100093.63
2023-01-28T09:41:37.459Z,100090.30
2023-01-28T09:44:07.793Z,100095.16
2023-01-28T09:46:35.996Z,100093.59
2023-01-28T09:49:40.587Z,100089.16
2023-01-28T09:52:11.131Z,100089.98
2023-01-28T09:54:44.822Z,100090.65
2023-01-28T09:57:20.771Z,100093.36
2023-01-28T09:59:54.869Z,100089.74
2023-01-28T10:02:39.341Z,100088.60
2023-01-28T15:00:19.391Z,100063.34
2023-01-28T15:02:47.000Z,100067.80
2023-01-28T15:05:28.149Z,100066.95
2023-01-28T15:07:55.811Z,100063.45
2023-01-28T15:10:35.465Z,100058.20
2023-01-28T15:13:09.727Z,100061.77
2023-01-28T15:15:38.829Z,100062.48
2023-01-28T15:18:32.371Z,100065.05
2023-01-28T15:21:01.331Z,100076.33
2023-01-28T15:23:33.609Z,100075.75
2023-01-28T15:26:07.384Z,100080.63
2023-01-28T15:28:36.662Z,100081.09
2023-01-28T15:31:03.927Z,100083.09
2023-01-28T15:33:31.521Z,100085.89
2023-01-28T15:35:58.874Z,100086.87
2023-01-28T15:38:28.596Z,100087.23
2023-01-28T15:40:58.715Z,100086.80
2023-01-28T15:43:33.438Z,100087.79
2023-01-28T15:46:01.215Z,100092.66
2023-01-28T15:48:30.458Z,100093.27
2023-01-28T15:51:08.467Z,100094.21
2023-01-28T15:53:45.210Z,100091.66
2023-01-28T15:56:13.484Z,100089.92
2023-01-28T15:58:43.274Z,100094.47
2023-01-28T16:01:13.661Z,100094.73
2023-01-28T16:03:43.002Z,100097.64
2023-01-28T16:06:11.300Z,100093.28
2023-01-28T16:08:47.502Z,100093.02
2023-01-28T16:11:29.871Z,100092.42
2023-01-28T16:14:02.629Z,100093.30
2023-01-28T16:16:34.508Z,100091.69
2023-01-28T16:19:04.171Z,100093.46
2023-01-28T16:21:34.270Z,100093.48
2023-01-28T16:24:03.632Z,100094.83
2023-01-28T16:26:33.825Z,100099.45
2023-01-28T16:29:21.184Z,100098.77
2023-01-28T16:31:48.344Z,100099.16
2023-01-28T16:34:15.422Z,100100.41
2023-01-28T16:36:42.331Z,100097.70
2023-01-28T16:39:09.332Z,100097.19
2023-01-28T16:41:40.221Z,100096.13
2023-01-28T16:44:08.331Z,100090.95
2023-01-28T16:46:35.442Z,100091.98
2023-01-28T16:49:04.606Z,100092.04
2023-01-28T16:51:31.602Z,100092.11
2023-01-28T16:53:58.576Z,100093.02
2023-01-28T16:56:46.311Z,100090.48
2023-01-28T16:59:15.333Z,100092.73
2023-01-28T17:01:45.424Z,100093.03
2023-01-28T17:04:25.229Z,100092.52
2023-01-28T17:06:53.313Z,100086.94
2023-01-28T17:09:22.847Z,100088.04
2023-01-28T17:11:50.199Z,100087.61
2023-01-28T17:14:17.660Z,100088.10
2023-01-28T17:16:45.193Z,100090.59
2023-01-28T17:19:12.073Z,100087.96
2023-01-28T17:21:39.106Z,100091.90
2023-01-28T17:24:07.201Z,100089.91
2023-01-28T17:26:35.993Z,100085.36
2023-01-28T17:29:04.272Z,100086.77
2023-01-28T17:31:32.646Z,100084.73
2023-01-28T17:34:00.692Z,100084.49
2023-01-28T17:36:32.673Z,100079.14
2023-01-28T17:38:59.703Z,100071.09
2023-01-28T17:41:34.649Z,100073.32
2023-01-28T17:44:01.658Z,100073.73
2023-01-28T17:46:30.210Z,100070.92
2023-01-28T17:48:57.332Z,100065.73
2023-01-28T17:51:24.244Z,100065.48
2023-01-28T17:53:52.447Z,100059.77
2023-01-28T17:56:32.084Z,100060.05
2023-01-28T17:59:04.027Z,100057.90
2023-01-28T18:01:31.101Z,100061.89
2023-01-28T18:04:06.019Z,100058.22
2023-01-28T18:06:38.391Z,100056.50
2023-01-28T18:09:11.781Z,100054.02
2023-01-28T18:11:40.018Z,100053.42
2023-01-28T18:14:07.470Z,100054.05
2023-01-28T18:16:34.525Z,100050.54
2023-01-28T18:19:08.352Z,100051.16
2023-01-28T18:21:51.589Z,100048.83
2023-01-28T18:24:27.086Z,100047.76
2023-01-28T18:26:57.740Z,100047.63
2023-01-28T18:29:25.961Z,100047.30
2023-01-28T18:31:59.024Z,100042.09
2023-01-28T18:34:27.210Z,100040.84
2023-01-28T18:36:54.520Z,100038.34
2023-01-28T18:39:27.045Z,100039.65
2023-01-28T18:41:57.047Z,100034.20
2023-01-28T18:44:29.749Z,100032.34
2023-01-28T18:46:56.940Z,100034.77
2023-01-28T18:49:24.339Z,100029.09
2023-01-28T18:51:51.485Z,100028.91
2023-01-28T18:54:20.080Z,100023.68
2023-01-28T18:56:48.160Z,100027.44
2023-01-28T18:59:20.725Z,100026.23
2023-01-28T19:01:51.705Z,100023.17
2023-01-28T23:16:58.439Z,99959.80
2023-01-28T23:19:44.484Z,99957.87
2023-01-28T23:22:56.581Z,99957.05
2023-01-28T23:25:23.905Z,99955.85
2023-01-28T23:27:51.086Z,99959.66
2023-01-28T23:30:29.703Z,99956.48
2023-01-28T23:32:57.939Z,99955.77
2023-01-28T23:35:28.009Z,99955.11
2023-01-28T23:37:56.061Z,99957.61
2023-01-28T23:40:26.694Z,99957.30
2023-01-28T23:42:54.465Z,99953.67
2023-01-28T23:45:21.815Z,99956.65
2023-01-28T23:47:55.650Z,99953.70
2023-01-28T23:50:33.428Z,99953.25
2023-01-28T23:53:12.653Z,99945.98
2023-01-28T23:55:42.774Z,99950.93
2023-01-28T23:58:09.956Z,99950.77
